< < Back
Terminal Aerodrome Forecast


Current Version              Previous Versions:   1  2  3  4  5  6  7  8  9  

Terminal Aerodrome Forecast

385
FTUS44 KBMX 192300
TAFBHM
TAF
KBHM 192320Z 2000/2024 00000KT P6SM SKC=

Latest METAR

056
SAUS70 KWBC 201100
MTRBHM
METAR KBHM 201053Z 00000KT 10SM CLR 08/07 A3010 RMK AO2 SLP190
T00830072


USA.gov is the U.S. government's official web portal to all federal, state and local government web resources and services.